sensor_id;sensor_type;location;lat;lon;timestamp;pressure;altitude;pressure_sealevel;temperature;humidity
54455;BME280;40364;52.270;10.546;2023-09-12T00:00:06;100189.41;;;33.68;43.99
54455;BME280;40364;52.270;10.546;2023-09-12T00:02:32;100181.38;;;33.21;45.24
54455;BME280;40364;52.270;10.546;2023-09-12T00:04:59;100185.19;;;33.32;44.75
54455;BME280;40364;52.270;10.546;2023-09-12T00:07:27;100191.69;;;33.27;45.50
54455;BME280;40364;52.270;10.546;2023-09-12T00:09:54;100185.44;;;33.08;45.90
54455;BME280;40364;52.270;10.546;2023-09-12T00:12:22;100189.34;;;33.57;44.78
54455;BME280;40364;52.270;10.546;2023-09-12T00:14:50;100182.81;;;33.31;45.02
54455;BME280;40364;52.270;10.546;2023-09-12T00:17:16;100188.59;;;33.10;45.66
54455;BME280;40364;52.270;10.546;2023-09-12T00:19:43;100184.63;;;33.08;45.55
54455;BME280;40364;52.270;10.546;2023-09-12T00:22:10;100183.84;;;33.07;45.80
54455;BME280;40364;52.270;10.546;2023-09-12T00:24:38;100187.03;;;33.61;44.69
54455;BME280;40364;52.270;10.546;2023-09-12T00:27:05;100194.53;;;33.79;44.43
54455;BME280;40364;52.270;10.546;2023-09-12T00:29:32;100198.88;;;33.69;44.53
54455;BME280;40364;52.270;10.546;2023-09-12T00:31:59;100200.56;;;33.50;44.75
54455;BME280;40364;52.270;10.546;2023-09-12T00:34:26;100202.75;;;33.08;46.09
54455;BME280;40364;52.270;10.546;2023-09-12T00:36:52;100207.84;;;32.18;49.18
54455;BME280;40364;52.270;10.546;2023-09-12T00:39:19;100204.00;;;32.41;48.97
54455;BME280;40364;52.270;10.546;2023-09-12T00:41:47;100209.00;;;32.40;50.59
54455;BME280;40364;52.270;10.546;2023-09-12T00:44:13;100202.13;;;32.03;51.18
54455;BME280;40364;52.270;10.546;2023-09-12T00:46:40;100198.31;;;32.46;49.00
54455;BME280;40364;52.270;10.546;2023-09-12T00:49:08;100193.13;;;32.30;50.32
54455;BME280;40364;52.270;10.546;2023-09-12T00:51:36;100183.53;;;32.79;48.97
54455;BME280;40364;52.270;10.546;2023-09-12T00:54:03;100188.16;;;32.31;50.04
54455;BME280;40364;52.270;10.546;2023-09-12T00:56:30;100180.66;;;32.79;48.54
54455;BME280;40364;52.270;10.546;2023-09-12T00:58:58;100174.78;;;32.74;49.01
54455;BME280;40364;52.270;10.546;2023-09-12T01:01:25;100171.28;;;32.85;47.84
54455;BME280;40364;52.270;10.546;2023-09-12T01:03:52;100168.41;;;33.10;47.06
54455;BME280;40364;52.270;10.546;2023-09-12T01:06:19;100156.41;;;33.43;46.29
54455;BME280;40364;52.270;10.546;2023-09-12T01:08:48;100159.81;;;33.42;45.41
54455;BME280;40364;52.270;10.546;2023-09-12T01:11:14;100145.94;;;33.46;45.20
54455;BME280;40364;52.270;10.546;2023-09-12T01:13:43;100142.28;;;33.20;45.90
54455;BME280;40364;52.270;10.546;2023-09-12T01:16:11;100136.72;;;33.42;45.84
54455;BME280;40364;52.270;10.546;2023-09-12T01:18:38;100138.25;;;33.11;46.08
54455;BME280;40364;52.270;10.546;2023-09-12T01:21:36;100146.97;;;33.43;45.85
54455;BME280;40364;52.270;10.546;2023-09-12T01:24:18;100158.16;;;33.61;44.99
54455;BME280;40364;52.270;10.546;2023-09-12T01:26:57;100192.47;;;32.82;48.02
54455;BME280;40364;52.270;10.546;2023-09-12T01:29:31;100182.78;;;31.89;52.23
54455;BME280;40364;52.270;10.546;2023-09-12T01:31:58;100139.06;;;32.86;49.12
54455;BME280;40364;52.270;10.546;2023-09-12T01:34:26;100135.72;;;32.93;47.81
54455;BME280;40364;52.270;10.546;2023-09-12T01:36:53;100165.19;;;32.36;49.57
54455;BME280;40364;52.270;10.546;2023-09-12T01:39:20;100193.66;;;32.14;51.45
54455;BME280;40364;52.270;10.546;2023-09-12T01:41:47;100184.72;;;32.12;52.37
54455;BME280;40364;52.270;10.546;2023-09-12T01:44:14;100165.28;;;31.28;55.98
54455;BME280;40364;52.270;10.546;2023-09-12T01:46:43;100165.91;;;32.31;52.50
54455;BME280;40364;52.270;10.546;2023-09-12T01:49:10;100178.88;;;32.62;50.04
54455;BME280;40364;52.270;10.546;2023-09-12T01:51:39;100187.66;;;32.93;48.90
54455;BME280;40364;52.270;10.546;2023-09-12T01:54:06;100183.31;;;32.83;49.79
54455;BME280;40364;52.270;10.546;2023-09-12T01:56:34;100188.22;;;33.23;48.31
54455;BME280;40364;52.270;10.546;2023-09-12T01:59:02;100196.38;;;32.58;50.57
54455;BME280;40364;52.270;10.546;2023-09-12T02:01:28;100204.03;;;32.82;49.12
54455;BME280;40364;52.270;10.546;2023-09-12T02:03:57;100194.66;;;32.87;49.28
54455;BME280;40364;52.270;10.546;2023-09-12T02:06:24;100200.91;;;32.65;49.29
54455;BME280;40364;52.270;10.546;2023-09-12T02:08:50;100216.84;;;32.05;50.80
54455;BME280;40364;52.270;10.546;2023-09-12T02:11:17;100221.81;;;31.90;52.18
54455;BME280;40364;52.270;10.546;2023-09-12T02:13:44;100201.72;;;32.10;50.85
54455;BME280;40364;52.270;10.546;2023-09-12T02:16:10;100210.06;;;32.43;49.65
54455;BME280;40364;52.270;10.546;2023-09-12T02:21:08;100208.41;;;32.57;49.80
54455;BME280;40364;52.270;10.546;2023-09-12T02:23:34;100206.53;;;32.54;49.34
54455;BME280;40364;52.270;10.546;2023-09-12T02:26:01;100212.13;;;32.22;49.99
54455;BME280;40364;52.270;10.546;2023-09-12T02:28:28;100209.63;;;32.30;49.38
54455;BME280;40364;52.270;10.546;2023-09-12T02:30:54;100209.56;;;32.65;48.65
54455;BME280;40364;52.270;10.546;2023-09-12T02:33:21;100208.91;;;32.55;48.71
54455;BME280;40364;52.270;10.546;2023-09-12T02:35:47;100196.81;;;32.92;47.57
54455;BME280;40364;52.270;10.546;2023-09-12T02:38:17;100202.00;;;33.13;47.37
54455;BME280;40364;52.270;10.546;2023-09-12T02:40:44;100196.59;;;32.55;48.21
54455;BME280;40364;52.270;10.546;2023-09-12T02:43:10;100203.63;;;32.74;48.00
54455;BME280;40364;52.270;10.546;2023-09-12T02:45:37;100201.63;;;32.80;48.01
54455;BME280;40364;52.270;10.546;2023-09-12T02:48:04;100203.44;;;32.98;47.41
54455;BME280;40364;52.270;10.546;2023-09-12T02:50:30;100207.19;;;32.84;47.76
54455;BME280;40364;52.270;10.546;2023-09-12T02:52:57;100205.97;;;32.70;47.99
54455;BME280;40364;52.270;10.546;2023-09-12T02:55:25;100209.53;;;33.05;47.67
54455;BME280;40364;52.270;10.546;2023-09-12T02:57:52;100209.56;;;32.85;47.50
54455;BME280;40364;52.270;10.546;2023-09-12T03:00:19;100208.22;;;33.06;47.18
54455;BME280;40364;52.270;10.546;2023-09-12T03:02:46;100207.81;;;32.73;47.59
54455;BME280;40364;52.270;10.546;2023-09-12T03:05:12;100203.63;;;32.74;47.57
54455;BME280;40364;52.270;10.546;2023-09-12T03:07:39;100210.13;;;32.48;48.36
54455;BME280;40364;52.270;10.546;2023-09-12T03:10:07;100212.00;;;32.72;47.98
54455;BME280;40364;52.270;10.546;2023-09-12T03:12:36;100213.53;;;32.88;47.42
54455;BME280;40364;52.270;10.546;2023-09-12T03:15:03;100224.22;;;32.82;47.11
54455;BME280;40364;52.270;10.546;2023-09-12T03:17:30;100221.25;;;32.56;47.89
54455;BME280;40364;52.270;10.546;2023-09-12T03:19:56;100240.50;;;32.64;47.70
54455;BME280;40364;52.270;10.546;2023-09-12T03:22:23;100240.91;;;32.37;48.24
54455;BME280;40364;52.270;10.546;2023-09-12T03:24:50;100250.84;;;31.71;50.94
54455;BME280;40364;52.270;10.546;2023-09-12T03:27:16;100250.31;;;31.58;51.61
54455;BME280;40364;52.270;10.546;2023-09-12T03:29:47;100244.78;;;32.19;49.97
54455;BME280;40364;52.270;10.546;2023-09-12T03:32:14;100244.25;;;31.56;51.59
54455;BME280;40364;52.270;10.546;2023-09-12T03:34:40;100247.59;;;31.10;53.48
54455;BME280;40364;52.270;10.546;2023-09-12T03:37:07;100252.03;;;31.79;50.84
54455;BME280;40364;52.270;10.546;2023-09-12T03:39:34;100256.75;;;31.24;52.54
54455;BME280;40364;52.270;10.546;2023-09-12T03:42:01;100254.38;;;31.52;51.78
54455;BME280;40364;52.270;10.546;2023-09-12T03:44:27;100258.25;;;31.63;51.31
54455;BME280;40364;52.270;10.546;2023-09-12T03:46:55;100263.25;;;31.09;54.14
54455;BME280;40364;52.270;10.546;2023-09-12T03:49:23;100260.91;;;31.23;53.09
54455;BME280;40364;52.270;10.546;2023-09-12T03:51:50;100260.94;;;31.37;52.24
54455;BME280;40364;52.270;10.546;2023-09-12T03:54:16;100255.88;;;30.94;53.72
54455;BME280;40364;52.270;10.546;2023-09-12T03:56:43;100241.59;;;30.99;53.30
54455;BME280;40364;52.270;10.546;2023-09-12T03:59:09;100237.91;;;31.52;51.91
54455;BME280;40364;52.270;10.546;2023-09-12T04:01:37;100255.78;;;31.56;51.18
54455;BME280;40364;52.270;10.546;2023-09-12T04:04:05;100266.69;;;31.52;51.63
54455;BME280;40364;52.270;10.546;2023-09-12T04:06:32;100256.41;;;29.51;61.20
54455;BME280;40364;52.270;10.546;2023-09-12T04:08:58;100256.50;;;30.50;57.01
54455;BME280;40364;52.270;10.546;2023-09-12T04:11:25;100264.72;;;31.05;54.21
54455;BME280;40364;52.270;10.546;2023-09-12T04:13:52;100250.13;;;30.94;54.76
54455;BME280;40364;52.270;10.546;2023-09-12T04:16:18;100233.34;;;31.31;53.25
54455;BME280;40364;52.270;10.546;2023-09-12T04:18:45;100248.28;;;31.73;51.29
54455;BME280;40364;52.270;10.546;2023-09-12T04:21:13;100250.53;;;31.84;51.77
54455;BME280;40364;52.270;10.546;2023-09-12T04:23:40;100265.91;;;30.98;54.33
54455;BME280;40364;52.270;10.546;2023-09-12T04:26:06;100277.22;;;31.02;54.76
54455;BME280;40364;52.270;10.546;2023-09-12T04:28:33;100280.38;;;31.28;53.35
54455;BME280;40364;52.270;10.546;2023-09-12T04:31:02;100295.28;;;31.41;53.77
54455;BME280;40364;52.270;10.546;2023-09-12T04:33:29;100304.41;;;30.11;59.67
54455;BME280;40364;52.270;10.546;2023-09-12T04:35:57;100316.84;;;30.17;60.91
54455;BME280;40364;52.270;10.546;2023-09-12T04:38:28;100338.72;;;30.57;59.50
54455;BME280;40364;52.270;10.546;2023-09-12T04:40:55;100340.25;;;29.19;68.79
54455;BME280;40364;52.270;10.546;2023-09-12T04:43:23;100348.84;;;28.51;71.96
54455;BME280;40364;52.270;10.546;2023-09-12T04:45:50;100353.56;;;30.04;63.59
54455;BME280;40364;52.270;10.546;2023-09-12T04:48:16;100353.97;;;29.33;68.22
54455;BME280;40364;52.270;10.546;2023-09-12T04:50:43;100343.31;;;30.21;61.96
54455;BME280;40364;52.270;10.546;2023-09-12T04:53:10;100338.28;;;29.89;63.12
54455;BME280;40364;52.270;10.546;2023-09-12T04:55:38;100322.53;;;29.75;66.43
54455;BME280;40364;52.270;10.546;2023-09-12T04:58:05;100308.31;;;30.65;60.76
54455;BME280;40364;52.270;10.546;2023-09-12T05:00:32;100303.75;;;31.21;57.48
54455;BME280;40364;52.270;10.546;2023-09-12T05:03:00;100282.25;;;31.16;57.00
54455;BME280;40364;52.270;10.546;2023-09-12T05:05:27;100283.97;;;31.37;54.70
54455;BME280;40364;52.270;10.546;2023-09-12T05:07:54;100274.28;;;31.79;53.75
54455;BME280;40364;52.270;10.546;2023-09-12T05:13:51;100282.16;;;32.28;52.04
54455;BME280;40364;52.270;10.546;2023-09-12T05:16:22;100262.00;;;32.48;51.25
54455;BME280;40364;52.270;10.546;2023-09-12T05:18:49;100287.06;;;32.42;51.28
54455;BME280;40364;52.270;10.546;2023-09-12T05:21:16;100279.09;;;32.52;50.78
54455;BME280;40364;52.270;10.546;2023-09-12T05:23:42;100276.31;;;32.58;50.37
54455;BME280;40364;52.270;10.546;2023-09-12T05:26:09;100271.00;;;32.71;49.80
54455;BME280;40364;52.270;10.546;2023-09-12T05:28:36;100276.34;;;32.78;49.27
54455;BME280;40364;52.270;10.546;2023-09-12T05:31:04;100276.38;;;33.04;48.88
54455;BME280;40364;52.270;10.546;2023-09-12T05:33:31;100289.75;;;32.81;49.31
54455;BME280;40364;52.270;10.546;2023-09-12T05:35:58;100289.00;;;32.66;50.01
54455;BME280;40364;52.270;10.546;2023-09-12T05:38:24;100277.44;;;33.01;48.91
54455;BME280;40364;52.270;10.546;2023-09-12T05:40:51;100281.34;;;33.24;48.14
54455;BME280;40364;52.270;10.546;2023-09-12T05:43:18;100279.72;;;32.97;48.33
54455;BME280;40364;52.270;10.546;2023-09-12T05:45:45;100288.56;;;33.13;47.86
54455;BME280;40364;52.270;10.546;2023-09-12T05:48:13;100284.22;;;33.44;47.72
54455;BME280;40364;52.270;10.546;2023-09-12T05:50:39;100271.72;;;32.86;48.71
54455;BME280;40364;52.270;10.546;2023-09-12T05:53:08;100276.53;;;33.61;47.81
54455;BME280;40364;52.270;10.546;2023-09-12T05:55:34;100274.94;;;33.60;46.77
54455;BME280;40364;52.270;10.546;2023-09-12T05:58:01;100284.84;;;33.79;46.33
54455;BME280;40364;52.270;10.546;2023-09-12T06:00:31;100285.00;;;33.70;46.27
54455;BME280;40364;52.270;10.546;2023-09-12T06:02:57;100294.50;;;33.76;46.28
54455;BME280;40364;52.270;10.546;2023-09-12T06:05:25;100302.09;;;34.00;46.03
54455;BME280;40364;52.270;10.546;2023-09-12T06:07:52;100314.88;;;33.67;46.21
54455;BME280;40364;52.270;10.546;2023-09-12T06:10:19;100303.59;;;32.97;47.85
54455;BME280;40364;52.270;10.546;2023-09-12T06:12:45;100309.28;;;32.92;47.58
54455;BME280;40364;52.270;10.546;2023-09-12T06:15:12;100319.88;;;33.41;46.30
54455;BME280;40364;52.270;10.546;2023-09-12T06:17:39;100346.09;;;32.47;49.00
54455;BME280;40364;52.270;10.546;2023-09-12T06:20:07;100350.25;;;33.16;47.78
54455;BME280;40364;52.270;10.546;2023-09-12T06:22:35;100352.19;;;33.45;47.01
54455;BME280;40364;52.270;10.546;2023-09-12T06:25:02;100356.34;;;32.48;48.67
54455;BME280;40364;52.270;10.546;2023-09-12T06:27:29;100353.84;;;31.53;52.43
54455;BME280;40364;52.270;10.546;2023-09-12T06:29:56;100355.56;;;32.83;49.04
54455;BME280;40364;52.270;10.546;2023-09-12T06:32:22;100369.13;;;32.27;50.28
54455;BME280;40364;52.270;10.546;2023-09-12T06:34:49;100377.84;;;31.49;53.58
54455;BME280;40364;52.270;10.546;2023-09-12T06:37:15;100397.31;;;32.08;51.51
54455;BME280;40364;52.270;10.546;2023-09-12T06:39:43;100402.09;;;31.58;54.22
54455;BME280;40364;52.270;10.546;2023-09-12T06:42:10;100413.09;;;32.12;52.34
54455;BME280;40364;52.270;10.546;2023-09-12T06:44:37;100412.13;;;32.30;51.46
54455;BME280;40364;52.270;10.546;2023-09-12T06:47:04;100421.03;;;32.76;50.33
54455;BME280;40364;52.270;10.546;2023-09-12T06:49:31;100424.00;;;31.55;52.67
54455;BME280;40364;52.270;10.546;2023-09-12T06:51:59;100436.97;;;31.36;55.33
54455;BME280;40364;52.270;10.546;2023-09-12T06:54:26;100446.50;;;31.42;55.81
54455;BME280;40364;52.270;10.546;2023-09-12T06:56:54;100434.25;;;31.56;56.74
54455;BME280;40364;52.270;10.546;2023-09-12T06:59:21;100471.06;;;31.76;55.48
54455;BME280;40364;52.270;10.546;2023-09-12T07:01:48;100472.94;;;31.55;57.42
54455;BME280;40364;52.270;10.546;2023-09-12T07:04:14;100448.00;;;30.11;67.96
54455;BME280;40364;52.270;10.546;2023-09-12T07:06:41;100466.84;;;29.94;71.59
54455;BME280;40364;52.270;10.546;2023-09-12T07:09:08;100451.63;;;29.38;74.11
54455;BME280;40364;52.270;10.546;2023-09-12T07:11:37;100442.97;;;30.57;69.45
54455;BME280;40364;52.270;10.546;2023-09-12T07:14:05;100436.47;;;30.29;71.99
54455;BME280;40364;52.270;10.546;2023-09-12T07:16:31;100450.09;;;29.83;71.26
54455;BME280;40364;52.270;10.546;2023-09-12T07:18:58;100451.06;;;30.68;68.28
54455;BME280;40364;52.270;10.546;2023-09-12T07:21:25;100449.69;;;31.20;67.60
54455;BME280;40364;52.270;10.546;2023-09-12T07:23:52;100433.06;;;31.63;64.22
54455;BME280;40364;52.270;10.546;2023-09-12T07:26:18;100430.66;;;31.70;64.15
54455;BME280;40364;52.270;10.546;2023-09-12T07:28:45;100411.13;;;31.65;66.29
54455;BME280;40364;52.270;10.546;2023-09-12T07:31:13;100390.63;;;32.17;63.86
54455;BME280;40364;52.270;10.546;2023-09-12T07:33:40;100368.00;;;31.95;63.91
54455;BME280;40364;52.270;10.546;2023-09-12T07:36:07;100367.03;;;31.59;64.81
54455;BME280;40364;52.270;10.546;2023-09-12T07:38:34;100371.78;;;31.71;65.89
54455;BME280;40364;52.270;10.546;2023-09-12T07:41:02;100362.22;;;31.80;65.64
54455;BME280;40364;52.270;10.546;2023-09-12T07:43:29;100345.34;;;32.17;63.30
54455;BME280;40364;52.270;10.546;2023-09-12T07:45:55;100333.75;;;31.97;63.67
54455;BME280;40364;52.270;10.546;2023-09-12T07:48:24;100322.72;;;32.60;62.24
54455;BME280;40364;52.270;10.546;2023-09-12T07:50:50;100301.63;;;32.33;59.92
54455;BME280;40364;52.270;10.546;2023-09-12T07:53:17;100295.19;;;32.24;62.11
54455;BME280;40364;52.270;10.546;2023-09-12T07:55:44;100286.13;;;32.16;61.66
54455;BME280;40364;52.270;10.546;2023-09-12T07:58:12;100290.81;;;32.13;63.57
54455;BME280;40364;52.270;10.546;2023-09-12T08:00:39;100279.91;;;32.53;60.25
54455;BME280;40364;52.270;10.546;2023-09-12T08:03:06;100273.44;;;32.08;59.97
54455;BME280;40364;52.270;10.546;2023-09-12T08:05:34;100273.91;;;32.56;59.01
54455;BME280;40364;52.270;10.546;2023-09-12T08:08:00;100268.09;;;32.71;57.51
54455;BME280;40364;52.270;10.546;2023-09-12T08:10:27;100276.81;;;32.56;57.78
54455;BME280;40364;52.270;10.546;2023-09-12T08:12:54;100266.34;;;32.59;55.71
54455;BME280;40364;52.270;10.546;2023-09-12T08:15:21;100275.13;;;32.50;56.81
54455;BME280;40364;52.270;10.546;2023-09-12T08:17:47;100269.34;;;32.29;56.85
54455;BME280;40364;52.270;10.546;2023-09-12T08:20:17;100266.28;;;32.73;54.77
54455;BME280;40364;52.270;10.546;2023-09-12T08:22:45;100269.44;;;33.36;53.63
54455;BME280;40364;52.270;10.546;2023-09-12T08:25:12;100254.81;;;32.59;54.62
54455;BME280;40364;52.270;10.546;2023-09-12T08:27:40;100264.94;;;32.69;55.36
54455;BME280;40364;52.270;10.546;2023-09-12T08:30:08;100266.16;;;32.62;54.79
54455;BME280;40364;52.270;10.546;2023-09-12T08:32:35;100259.38;;;33.06;53.79
54455;BME280;40364;52.270;10.546;2023-09-12T08:35:01;100267.53;;;33.28;52.71
54455;BME280;40364;52.270;10.546;2023-09-12T08:37:29;100271.41;;;33.25;52.61
54455;BME280;40364;52.270;10.546;2023-09-12T08:39:57;100276.31;;;33.19;53.13
54455;BME280;40364;52.270;10.546;2023-09-12T08:42:26;100286.50;;;33.86;50.95
54455;BME280;40364;52.270;10.546;2023-09-12T08:44:53;100296.75;;;33.61;49.91
54455;BME280;40364;52.270;10.546;2023-09-12T08:47:22;100298.53;;;33.33;51.26
54455;BME280;40364;52.270;10.546;2023-09-12T08:49:49;100312.56;;;32.99;52.42
54455;BME280;40364;52.270;10.546;2023-09-12T08:52:16;100320.41;;;34.23;49.63
54455;BME280;40364;52.270;10.546;2023-09-12T08:54:42;100317.19;;;34.47;49.84
54455;BME280;40364;52.270;10.546;2023-09-12T08:57:12;100319.84;;;34.56;48.23
54455;BME280;40364;52.270;10.546;2023-09-12T08:59:40;100327.91;;;35.31;47.21
54455;BME280;40364;52.270;10.546;2023-09-12T09:02:10;100339.28;;;34.50;48.91
54455;BME280;40364;52.270;10.546;2023-09-12T09:04:39;100351.25;;;35.17;49.05
54455;BME280;40364;52.270;10.546;2023-09-12T09:07:06;100356.63;;;33.87;48.85
54455;BME280;40364;52.270;10.546;2023-09-12T09:09:34;100358.84;;;33.10;50.01
54455;BME280;40364;52.270;10.546;2023-09-12T09:12:01;100355.31;;;33.67;50.17
54455;BME280;40364;52.270;10.546;2023-09-12T09:14:30;100359.72;;;34.77;48.84
54455;BME280;40364;52.270;10.546;2023-09-12T09:16:58;100368.59;;;35.17;47.89
54455;BME280;40364;52.270;10.546;2023-09-12T09:19:39;100370.88;;;33.96;48.27
54455;BME280;40364;52.270;10.546;2023-09-12T09:22:07;100390.78;;;32.72;52.19
54455;BME280;40364;52.270;10.546;2023-09-12T09:24:34;100396.69;;;31.51;58.45
54455;BME280;40364;52.270;10.546;2023-09-12T09:27:00;100392.31;;;32.67;54.35
54455;BME280;40364;52.270;10.546;2023-09-12T09:29:28;100388.00;;;32.77;54.42
54455;BME280;40364;52.270;10.546;2023-09-12T09:31:59;100400.41;;;31.66;60.33
54455;BME280;40364;52.270;10.546;2023-09-12T09:34:26;100394.91;;;31.38;62.33
54455;BME280;40364;52.270;10.546;2023-09-12T09:36:56;100390.66;;;32.02;57.89
54455;BME280;40364;52.270;10.546;2023-09-12T09:39:24;100387.38;;;31.41;61.06
54455;BME280;40364;52.270;10.546;2023-09-12T09:41:52;100398.78;;;31.89;58.01
54455;BME280;40364;52.270;10.546;2023-09-12T09:44:20;100399.38;;;32.52;55.88
54455;BME280;40364;52.270;10.546;2023-09-12T09:46:50;100408.38;;;33.09;52.95
54455;BME280;40364;52.270;10.546;2023-09-12T09:49:20;100407.28;;;32.86;53.04
54455;BME280;40364;52.270;10.546;2023-09-12T09:51:47;100417.38;;;32.17;54.76
54455;BME280;40364;52.270;10.546;2023-09-12T09:54:14;100416.06;;;32.18;54.39
54455;BME280;40364;52.270;10.546;2023-09-12T09:56:45;100426.25;;;32.28;54.53
54455;BME280;40364;52.270;10.546;2023-09-12T09:59:14;100427.59;;;32.18;55.87
54455;BME280;40364;52.270;10.546;2023-09-12T10:01:41;100423.63;;;32.60;53.72
54455;BME280;40364;52.270;10.546;2023-09-12T10:04:09;100425.09;;;31.81;55.61
54455;BME280;40364;52.270;10.546;2023-09-12T10:06:38;100425.91;;;31.97;56.81
54455;BME280;40364;52.270;10.546;2023-09-12T10:09:06;100428.00;;;32.11;56.70
54455;BME280;40364;52.270;10.546;2023-09-12T10:11:34;100426.19;;;32.87;53.06
54455;BME280;40364;52.270;10.546;2023-09-12T10:14:03;100421.41;;;34.06;49.68
54455;BME280;40364;52.270;10.546;2023-09-12T10:16:32;100427.59;;;32.77;49.39
54455;BME280;40364;52.270;10.546;2023-09-12T10:19:03;100432.56;;;33.11;51.46
54455;BME280;40364;52.270;10.546;2023-09-12T10:21:34;100423.09;;;32.76;50.79
54455;BME280;40364;52.270;10.546;2023-09-12T10:24:03;100425.19;;;32.90;51.97
54455;BME280;40364;52.270;10.546;2023-09-12T10:26:31;100417.22;;;34.07;47.92
54455;BME280;40364;52.270;10.546;2023-09-12T10:28:59;100417.09;;;34.48;45.56
54455;BME280;40364;52.270;10.546;2023-09-12T10:31:26;100421.41;;;34.32;44.72
54455;BME280;40364;52.270;10.546;2023-09-12T10:33:53;100427.75;;;34.10;45.71
54455;BME280;40364;52.270;10.546;2023-09-12T10:36:20;100421.28;;;33.95;46.58
54455;BME280;40364;52.270;10.546;2023-09-12T10:38:48;100422.41;;;34.55;45.09
54455;BME280;40364;52.270;10.546;2023-09-12T10:41:19;100428.16;;;34.81;43.59
54455;BME280;40364;52.270;10.546;2023-09-12T10:43:47;100417.28;;;35.18;43.19
54455;BME280;40364;52.270;10.546;2023-09-12T10:46:17;100415.00;;;34.48;43.65
54455;BME280;40364;52.270;10.546;2023-09-12T10:48:44;100421.38;;;34.95;42.46
54455;BME280;40364;52.270;10.546;2023-09-12T10:51:11;100412.34;;;32.91;46.78
54455;BME280;40364;52.270;10.546;2023-09-12T10:53:38;100409.09;;;33.65;45.29
54455;BME280;40364;52.270;10.546;2023-09-12T10:56:18;100394.06;;;34.64;42.90
54455;BME280;40364;52.270;10.546;2023-09-12T10:59:13;100399.22;;;35.29;40.99
54455;BME280;40364;52.270;10.546;2023-09-12T11:01:41;100401.72;;;34.36;42.05
54455;BME280;40364;52.270;10.546;2023-09-12T11:04:32;100408.69;;;34.50;41.70
54455;BME280;40364;52.270;10.546;2023-09-12T11:07:29;100404.38;;;35.67;40.02
54455;BME280;40364;52.270;10.546;2023-09-12T11:10:20;100415.91;;;35.56;39.58
54455;BME280;40364;52.270;10.546;2023-09-12T11:12:49;100419.66;;;35.68;39.49
54455;BME280;40364;52.270;10.546;2023-09-12T11:15:17;100418.81;;;35.56;40.34
54455;BME280;40364;52.270;10.546;2023-09-12T11:17:45;100412.78;;;35.65;39.55
54455;BME280;40364;52.270;10.546;2023-09-12T11:20:12;100399.78;;;36.31;38.16
54455;BME280;40364;52.270;10.546;2023-09-12T11:22:40;100404.94;;;37.17;37.44
54455;BME280;40364;52.270;10.546;2023-09-12T11:25:18;100409.28;;;38.45;34.98
54455;BME280;40364;52.270;10.546;2023-09-12T11:28:03;100408.53;;;38.38;34.33
54455;BME280;40364;52.270;10.546;2023-09-12T11:30:32;100428.50;;;37.65;35.45
54455;BME280;40364;52.270;10.546;2023-09-12T11:33:03;100422.53;;;37.52;35.28
54455;BME280;40364;52.270;10.546;2023-09-12T11:35:36;100433.91;;;37.97;34.40
54455;BME280;40364;52.270;10.546;2023-09-12T11:38:03;100423.91;;;37.34;35.24
54455;BME280;40364;52.270;10.546;2023-09-12T11:40:42;100421.59;;;37.10;36.50
54455;BME280;40364;52.270;10.546;2023-09-12T11:43:20;100424.06;;;38.47;35.28
54455;BME280;40364;52.270;10.546;2023-09-12T11:45:47;100421.56;;;38.26;34.65
54455;BME280;40364;52.270;10.546;2023-09-12T11:48:15;100433.06;;;37.55;36.32
54455;BME280;40364;52.270;10.546;2023-09-12T11:50:42;100433.78;;;36.87;36.88
54455;BME280;40364;52.270;10.546;2023-09-12T11:53:10;100431.25;;;37.99;35.80
54455;BME280;40364;52.270;10.546;2023-09-12T11:55:42;100435.13;;;38.18;35.13
54455;BME280;40364;52.270;10.546;2023-09-12T11:58:10;100426.97;;;38.11;35.33
54455;BME280;40364;52.270;10.546;2023-09-12T12:00:42;100430.50;;;37.35;36.63
54455;BME280;40364;52.270;10.546;2023-09-12T12:03:11;100433.78;;;36.48;38.37
54455;BME280;40364;52.270;10.546;2023-09-12T12:05:38;100448.03;;;36.96;38.59
54455;BME280;40364;52.270;10.546;2023-09-12T12:08:10;100452.25;;;36.44;39.33
54455;BME280;40364;52.270;10.546;2023-09-12T12:10:52;100454.03;;;35.38;41.49
54455;BME280;40364;52.270;10.546;2023-09-12T12:13:20;100453.56;;;36.77;38.40
54455;BME280;40364;52.270;10.546;2023-09-12T12:15:48;100444.28;;;33.84;45.39
54455;BME280;40364;52.270;10.546;2023-09-12T12:18:15;100439.94;;;35.14;42.15
54455;BME280;40364;52.270;10.546;2023-09-12T12:20:42;100431.28;;;35.79;40.15
54455;BME280;40364;52.270;10.546;2023-09-12T12:23:09;100436.91;;;35.34;42.27
54455;BME280;40364;52.270;10.546;2023-09-12T12:25:36;100445.31;;;34.32;45.22
54455;BME280;40364;52.270;10.546;2023-09-12T12:28:03;100445.59;;;34.66;44.09
54455;BME280;40364;52.270;10.546;2023-09-12T12:30:30;100466.81;;;34.52;43.81
54455;BME280;40364;52.270;10.546;2023-09-12T12:33:00;100457.22;;;35.51;42.22
54455;BME280;40364;52.270;10.546;2023-09-12T12:35:28;100450.63;;;35.02;42.26
54455;BME280;40364;52.270;10.546;2023-09-12T12:37:55;100439.00;;;36.04;39.92
54455;BME280;40364;52.270;10.546;2023-09-12T12:40:22;100442.22;;;36.46;38.70
54455;BME280;40364;52.270;10.546;2023-09-12T12:42:49;100426.09;;;36.17;39.29
54455;BME280;40364;52.270;10.546;2023-09-12T12:45:16;100414.72;;;37.08;37.83
54455;BME280;40364;52.270;10.546;2023-09-12T12:47:44;100417.03;;;35.75;39.65
54455;BME280;40364;52.270;10.546;2023-09-12T12:50:13;100411.25;;;35.75;40.17